Time;durP1;ratioP1;P1;durP2;ratioP2;P2;SDS_P1;SDS_P2;PMS_P1;PMS_P2;Temp;Humidity;BMP_temperature;BMP_pressure;BME280_temperature;BME280_humidity;BME280_pressure;Samples;Min_cycle;Max_cycle;Signal;HPM_P1;HPM_P2
2021/01/06 03:45:25;;;;;;;89.53;46.35;;;7.70;82.10;;;;;;5766651;24;20836;31
2021/01/06 03:48:01;;;;;;;87.28;44.38;;;7.60;81.90;;;;;;4770439;30;20063;-75
2021/01/06 03:50:40;;;;;;;92.72;44.45;;;7.60;82.10;;;;;;4796011;30;20260;-74
2021/01/06 03:53:33;;;;;;;89.85;44.80;;;7.60;82.60;;;;;;4782161;30;20036;-74
2021/01/06 03:56:18;;;;;;;90.57;42.92;;;7.50;82.20;;;;;;4782151;30;20032;-74
2021/01/06 03:58:59;;;;;;;87.88;41.75;;;7.30;81.90;;;;;;4795976;30;20039;-74
2021/01/06 04:01:54;;;;;;;86.55;42.65;;;7.40;82.00;;;;;;4781858;30;20040;-75
2021/01/06 04:04:32;;;;;;;91.63;42.73;;;7.40;81.80;;;;;;4795982;30;20035;-76
2021/01/06 04:07:00;;;;;;;95.03;44.33;;;7.50;81.60;;;;;;4795687;29;20043;-74
2021/01/06 04:10:09;;;;;;;84.25;43.53;;;7.50;81.50;;;;;;4795635;29;20024;-74
2021/01/06 04:12:35;;;;;;;100.15;44.65;;;7.50;81.60;;;;;;4797699;30;20035;-74
2021/01/06 04:15:03;;;;;;;87.77;41.40;;;7.40;81.70;;;;;;4797913;30;20047;-74
2021/01/06 04:17:30;;;;;;;93.07;43.65;;;7.30;81.60;;;;;;4797644;30;20337;-73
2021/01/06 04:20:31;;;;;;;89.82;43.65;;;7.30;81.90;;;;;;4797822;30;20058;-73
2021/01/06 04:23:00;;;;;;;88.85;41.47;;;7.10;81.60;;;;;;4797781;30;20186;-75
2021/01/06 04:25:34;;;;;;;96.15;44.15;;;7.10;81.90;;;;;;4797486;30;20276;-74
2021/01/06 04:28:11;;;;;;;92.57;43.00;;;7.10;81.70;;;;;;4808433;29;20415;-73
2021/01/06 04:30:41;;;;;;;;;;;7.10;81.80;;;;;;4800722;29;20061;-74
2021/01/06 04:33:15;;;;;;;91.97;40.50;;;7.10;82.40;;;;;;4815452;29;19909;-74
2021/01/06 04:35:41;;;;;;;99.97;42.10;;;7.00;81.90;;;;;;4815633;29;20031;-74
2021/01/06 04:38:06;;;;;;;84.53;40.55;;;7.10;81.80;;;;;;4815459;29;20077;-74
2021/01/06 04:40:40;;;;;;;95.63;44.70;;;6.90;81.80;;;;;;4815394;29;20190;-75
2021/01/06 04:43:13;;;;;;;91.80;42.47;;;7.10;82.20;;;;;;4785440;29;20030;-75
2021/01/06 04:45:43;;;;;;;91.38;44.63;;;7.00;81.70;;;;;;4795266;29;20049;-75
2021/01/06 04:48:15;;;;;;;95.75;43.85;;;7.00;82.10;;;;;;4770354;30;20054;-75
2021/01/06 04:51:16;;;;;;;94.93;43.45;;;6.90;82.10;;;;;;4763742;30;20095;-75
2021/01/06 04:53:53;;;;;;;90.40;43.25;;;6.90;81.90;;;;;;4767555;30;20186;-75
2021/01/06 04:56:54;;;;;;;95.70;43.45;;;7.10;82.00;;;;;;4796654;29;20174;-75
2021/01/06 04:59:44;;;;;;;96.78;42.00;;;7.10;81.80;;;;;;4797508;30;20911;-75
2021/01/06 05:02:28;;;;;;;103.90;46.38;;;7.10;81.80;;;;;;4796982;30;20311;-75
2021/01/06 05:05:23;;;;;;;98.95;44.03;;;7.00;81.90;;;;;;4782068;30;20070;-75
2021/01/06 05:08:10;;;;;;;90.93;42.30;;;7.00;82.30;;;;;;4796982;30;20055;-75
2021/01/06 05:10:48;;;;;;;102.35;46.30;;;7.00;82.10;;;;;;4782119;30;20211;-75
2021/01/06 05:13:38;;;;;;;99.47;44.15;;;7.00;82.10;;;;;;4782052;30;20106;-75
2021/01/06 05:16:30;;;;;;;89.75;41.25;;;6.90;82.50;;;;;;4796790;30;20035;-75
2021/01/06 05:18:56;;;;;;;91.20;41.70;;;7.00;82.40;;;;;;4796944;30;20039;-76
2021/01/06 05:21:25;;;;;;;104.00;44.70;;;7.00;82.30;;;;;;4796842;30;20122;-75
2021/01/06 05:23:55;;;;;;;101.78;44.40;;;7.10;82.30;;;;;;4796938;30;20038;-75
2021/01/06 05:26:21;;;;;;;95.82;44.03;;;7.20;82.10;;;;;;4796789;30;20031;-75
2021/01/06 05:28:49;;;;;;;95.95;42.28;;;7.20;82.00;;;;;;4793619;29;20035;-74
2021/01/06 05:31:14;;;;;;;92.40;41.25;;;7.20;82.00;;;;;;4780755;30;20038;-74
2021/01/06 05:33:46;;;;;;;88.72;40.10;;;7.10;82.00;;;;;;4779368;29;20059;-75
2021/01/06 05:36:18;;;;;;;85.30;38.33;;;7.10;82.00;;;;;;4780439;30;20040;-74
2021/01/06 05:38:44;;;;;;;84.93;36.55;;;6.90;82.50;;;;;;4779341;30;20039;-75
2021/01/06 05:41:10;;;;;;;77.18;33.40;;;6.90;82.50;;;;;;4780630;30;20032;-74
2021/01/06 05:43:43;;;;;;;82.47;34.35;;;6.90;82.50;;;;;;4794027;29;20045;-74
2021/01/06 05:46:16;;;;;;;71.03;32.05;;;6.80;82.70;;;;;;4788248;29;20352;-74
2021/01/06 05:48:56;;;;;;;62.95;29.65;;;6.80;82.50;;;;;;4762726;30;20028;-74
2021/01/06 05:51:49;;;;;;;62.15;27.65;;;6.70;82.50;;;;;;4761399;30;20040;-74
2021/01/06 05:54:21;;;;;;;64.75;26.98;;;6.60;82.30;;;;;;4762236;30;20050;-74
2021/01/06 05:57:31;;;;;;;59.67;26.98;;;6.60;82.20;;;;;;4762394;30;20032;-74
2021/01/06 06:00:12;;;;;;;61.20;27.17;;;6.50;81.90;;;;;;4814074;29;20062;-74
2021/01/06 06:03:13;;;;;;;64.65;28.23;;;6.40;81.90;;;;;;4813956;29;20126;-74
2021/01/06 06:05:41;;;;;;;66.85;30.92;;;6.40;82.30;;;;;;4777960;30;20043;-75
2021/01/06 06:08:44;;;;;;;67.00;29.08;;;6.40;81.80;;;;;;4778065;30;20055;-75
2021/01/06 06:11:15;;;;;;;78.20;30.10;;;6.50;81.40;;;;;;4763299;30;20048;-74
2021/01/06 06:13:52;;;;;;;63.08;30.02;;;6.40;81.60;;;;;;4763063;30;20092;-74
2021/01/06 06:16:45;;;;;;;68.50;30.02;;;6.40;81.50;;;;;;4773897;30;20108;-74
2021/01/06 06:19:23;;;;;;;70.95;31.15;;;6.40;81.10;;;;;;4777839;30;20173;-74
2021/01/06 06:22:22;;;;;;;73.55;31.25;;;6.50;81.10;;;;;;4777747;30;20046;-74
2021/01/06 06:25:13;;;;;;;67.65;30.33;;;6.40;80.90;;;;;;4763020;30;20073;-73
2021/01/06 06:27:58;;;;;;;76.30;31.30;;;6.50;80.90;;;;;;4774263;30;20047;-74
2021/01/06 06:30:32;;;;;;;77.07;32.72;;;6.40;80.60;;;;;;4777566;30;20056;-74
2021/01/06 06:32:59;;;;;;;79.78;32.13;;;6.40;80.90;;;;;;4762682;30;20039;-73
2021/01/06 06:35:36;;;;;;;73.20;30.38;;;6.40;80.70;;;;;;4749719;30;20045;-73
2021/01/06 06:38:05;;;;;;;80.43;33.28;;;6.40;80.40;;;;;;4724539;30;20235;-73
2021/01/06 06:40:51;;;;;;;81.78;32.92;;;6.40;80.30;;;;;;4710138;30;20041;-73
2021/01/06 06:43:30;;;;;;;82.13;33.63;;;6.40;80.10;;;;;;4738996;30;20209;-72
2021/01/06 06:46:11;;;;;;;87.00;33.60;;;6.30;80.30;;;;;;4745281;30;20040;-73
2021/01/06 06:49:12;;;;;;;73.28;32.92;;;6.30;80.20;;;;;;4744821;30;20044;-73
2021/01/06 06:51:47;;;;;;;73.55;34.05;;;6.30;80.20;;;;;;4759391;30;20032;-72
2021/01/06 06:54:24;;;;;;;79.57;35.00;;;6.20;80.30;;;;;;4759484;30;20056;-72
2021/01/06 06:56:49;;;;;;;79.55;35.95;;;6.20;80.40;;;;;;4759317;30;20115;-73
2021/01/06 06:59:34;;;;;;;85.57;35.33;;;6.20;80.50;;;;;;4759244;30;20043;-72
2021/01/06 07:02:02;;;;;;;85.28;35.53;;;6.20;80.60;;;;;;4759209;30;20397;-73
2021/01/06 07:04:42;;;;;;;79.00;34.60;;;6.20;80.60;;;;;;4759426;30;20038;-73
2021/01/06 07:07:21;;;;;;;86.78;35.13;;;6.20;80.50;;;;;;4759129;30;20066;-73
2021/01/06 07:09:50;;;;;;;82.55;33.13;;;6.30;80.40;;;;;;4747167;30;20120;-73
2021/01/06 07:12:16;;;;;;;95.95;36.40;;;6.30;80.30;;;;;;4766385;30;20410;-74
2021/01/06 07:14:50;;;;;;;93.30;36.03;;;6.20;80.10;;;;;;4744406;30;20032;-74
2021/01/06 07:17:27;;;;;;;102.43;39.35;;;6.10;80.30;;;;;;4759315;30;20044;-74
2021/01/06 07:20:04;;;;;;;92.75;36.40;;;6.10;80.60;;;;;;4759581;30;20056;-74
2021/01/06 07:22:40;;;;;;;104.93;40.30;;;6.10;80.60;;;;;;4769970;30;20323;-74
2021/01/06 07:25:12;;;;;;;138.07;55.25;;;6.10;80.80;;;;;;4778896;30;20032;-74
2021/01/06 07:27:38;;;;;;;134.40;52.10;;;6.00;80.90;;;;;;4778759;30;20032;-74
2021/01/06 07:30:05;;;;;;;98.53;42.28;;;6.00;81.00;;;;;;4774442;30;20027;-74
2021/01/06 07:32:39;;;;;;;99.85;42.03;;;6.00;81.30;;;;;;4768667;30;20040;-74
2021/01/06 07:35:21;;;;;;;99.68;40.50;;;6.00;81.10;;;;;;4769632;30;20102;-74
2021/01/06 07:38:02;;;;;;;95.22;37.80;;;6.00;81.30;;;;;;4790960;29;20111;-74
2021/01/06 07:40:37;;;;;;;94.78;36.70;;;6.00;81.30;;;;;;4767850;30;20047;-74
2021/01/06 07:43:24;;;;;;;93.60;36.88;;;6.00;81.30;;;;;;4766464;30;20028;-73
2021/01/06 07:45:59;;;;;;;108.18;41.75;;;6.00;81.30;;;;;;4789846;29;20127;-74
2021/01/06 07:48:43;;;;;;;99.40;40.08;;;6.00;81.30;;;;;;4782309;30;20324;-74
2021/01/06 07:51:15;;;;;;;106.72;41.38;;;5.90;81.40;;;;;;4790413;30;20216;-74
2021/01/06 07:53:58;;;;;;;104.95;41.53;;;5.90;81.40;;;;;;4786927;30;20043;-73
2021/01/06 07:56:39;;;;;;;92.72;36.25;;;5.90;81.40;;;;;;4790323;30;20110;-73
2021/01/06 07:59:18;;;;;;;86.15;37.42;;;5.80;81.70;;;;;;4763758;30;20304;-74
2021/01/06 08:01:49;;;;;;;92.90;38.55;;;5.90;81.90;;;;;;4790528;30;20044;-75
2021/01/06 08:04:21;;;;;;;86.10;35.42;;;5.90;81.60;;;;;;4766519;30;20040;-74
2021/01/06 08:06:54;;;;;;;90.65;38.88;;;5.90;81.80;;;;;;4781436;30;20062;-74
2021/01/06 08:09:41;;;;;;;80.05;35.67;;;6.00;81.80;;;;;;4768350;30;20105;-76
2021/01/06 08:12:29;;;;;;;80.47;35.38;;;6.00;81.40;;;;;;4788529;29;20032;-74
2021/01/06 08:15:22;;;;;;;78.40;35.13;;;6.00;81.50;;;;;;4753533;30;20286;-75
2021/01/06 08:18:05;;;;;;;76.90;33.83;;;6.00;81.50;;;;;;4781844;30;20028;-74
2021/01/06 08:20:51;;;;;;;84.07;33.28;;;5.90;81.60;;;;;;4789213;29;20055;-74
2021/01/06 08:23:19;;;;;;;71.53;30.98;;;6.00;81.80;;;;;;4760087;30;20307;-75
2021/01/06 08:25:56;;;;;;;67.25;30.55;;;6.10;81.70;;;;;;4771239;30;20036;-74
2021/01/06 08:28:28;;;;;;;67.82;30.50;;;6.10;81.50;;;;;;4770645;30;20028;-74
2021/01/06 08:31:13;;;;;;;73.38;31.88;;;6.10;81.50;;;;;;4780431;29;20056;-74
2021/01/06 08:33:53;;;;;;;80.22;34.25;;;6.10;81.80;;;;;;4768115;30;20036;-74
2021/01/06 08:36:29;;;;;;;74.18;33.47;;;6.10;81.80;;;;;;4769231;30;20043;-74
2021/01/06 08:39:29;;;;;;;80.27;34.17;;;6.10;81.70;;;;;;4791441;30;20219;-74
2021/01/06 08:42:06;;;;;;;65.15;29.10;;;6.20;81.90;;;;;;4797341;30;20114;-74
2021/01/06 08:44:54;;;;;;;63.60;30.20;;;6.20;81.70;;;;;;4797342;30;20074;-75
2021/01/06 08:47:32;;;;;;;68.05;30.67;;;6.20;81.70;;;;;;4802057;29;20055;-75
2021/01/06 08:50:15;;;;;;;62.45;28.92;;;6.20;82.10;;;;;;4809556;29;20043;-74
2021/01/06 08:52:48;;;;;;;68.10;29.63;;;6.20;82.20;;;;;;4802997;29;20046;-74
2021/01/06 08:55:32;;;;;;;58.78;29.35;;;6.20;82.20;;;;;;4785170;29;20034;-74
2021/01/06 08:58:12;;;;;;;67.63;30.42;;;6.20;82.30;;;;;;4804659;29;20043;-75
2021/01/06 09:00:38;;;;;;;71.50;33.13;;;6.30;82.20;;;;;;4798858;29;20553;-75
2021/01/06 09:03:06;;;;;;;68.38;30.95;;;6.20;82.20;;;;;;4802092;29;20034;-74
2021/01/06 09:06:06;;;;;;;67.82;30.10;;;6.20;82.50;;;;;;4807739;29;20123;-76
2021/01/06 09:08:38;;;;;;;71.82;29.98;;;6.20;82.60;;;;;;4815126;29;20054;-77
2021/01/06 09:11:42;;;;;;;71.25;30.63;;;6.20;82.50;;;;;;4815310;29;20112;-77
2021/01/06 09:14:16;;;;;;;71.38;31.08;;;6.20;83.50;;;;;;4815251;29;20077;-77
2021/01/06 09:16:50;;;;;;;65.78;30.70;;;6.20;82.80;;;;;;4799162;29;20637;-77
2021/01/06 09:19:48;;;;;;;68.80;28.77;;;6.30;82.80;;;;;;4763474;30;20032;-75
2021/01/06 09:22:16;;;;;;;67.05;29.17;;;6.30;82.80;;;;;;4759717;29;20073;-75
2021/01/06 09:24:44;;;;;;;58.55;27.35;;;6.30;82.80;;;;;;4763575;30;20332;-77
2021/01/06 09:27:35;;;;;;;68.25;28.45;;;6.30;82.80;;;;;;4768016;30;20023;-78
2021/01/06 09:30:05;;;;;;;61.00;26.77;;;6.20;83.50;;;;;;4795269;30;20066;-77
2021/01/06 09:32:35;;;;;;;51.65;24.95;;;6.10;84.10;;;;;;4780776;30;20039;-77
2021/01/06 09:35:13;;;;;;;54.47;24.25;;;6.00;84.40;;;;;;4794122;29;20035;-78
2021/01/06 09:37:56;;;;;;;52.47;24.75;;;6.20;84.40;;;;;;4794095;29;20050;-77
2021/01/06 09:40:23;;;;;;;51.17;24.48;;;6.30;83.90;;;;;;4781041;30;20044;-76
2021/01/06 09:42:56;;;;;;;;;;;6.30;84.00;;;;;;4762256;30;20242;-76
2021/01/06 09:45:25;;;;;;;43.78;20.83;;;6.30;84.10;;;;;;4775405;30;19910;-76
2021/01/06 09:47:59;;;;;;;46.83;22.90;;;6.30;84.10;;;;;;4768246;30;20055;-76
2021/01/06 09:50:34;;;;;;;42.17;22.95;;;6.30;84.50;;;;;;4777218;30;20034;-76
2021/01/06 09:53:05;;;;;;;40.67;22.45;;;6.30;84.10;;;;;;4777016;30;20038;-76
2021/01/06 09:55:31;;;;;;;38.65;21.98;;;6.20;84.30;;;;;;4760256;30;20024;-76
2021/01/06 09:58:43;;;;;;;39.13;20.73;;;6.20;84.60;;;;;;4775266;29;20262;-76
2021/01/06 10:01:23;;;;;;;45.45;22.73;;;6.30;84.80;;;;;;4813601;29;20538;-76
2021/01/06 10:03:51;;;;;;;38.88;21.40;;;6.20;85.20;;;;;;4813507;29;20035;-76
2021/01/06 10:06:36;;;;;;;51.13;24.80;;;6.30;84.90;;;;;;4813434;29;20123;-76
2021/01/06 10:09:31;;;;;;;55.20;26.77;;;6.30;85.00;;;;;;4813784;29;20035;-76
2021/01/06 10:12:16;;;;;;;57.65;26.40;;;6.30;85.00;;;;;;4798736;29;20078;-76
2021/01/06 10:15:18;;;;;;;54.22;28.40;;;6.40;85.10;;;;;;4808374;29;20034;-76
2021/01/06 10:17:59;;;;;;;46.80;24.35;;;6.40;85.00;;;;;;4812539;29;20337;-76
2021/01/06 10:20:38;;;;;;;50.97;25.33;;;6.50;84.90;;;;;;4813188;29;20058;-77
2021/01/06 10:23:33;;;;;;;41.35;21.77;;;6.50;84.90;;;;;;4813755;29;20067;-76
2021/01/06 10:26:23;;;;;;;54.28;24.60;;;6.50;84.80;;;;;;4813313;29;20061;-76
2021/01/06 10:28:50;;;;;;;40.38;21.33;;;6.50;84.80;;;;;;4813041;29;20034;-76
2021/01/06 10:31:19;;;;;;;41.95;23.85;;;6.60;84.40;;;;;;4813229;29;20043;-76
2021/01/06 10:34:05;;;;;;;40.08;22.58;;;6.60;84.50;;;;;;4812944;29;20043;-76
2021/01/06 10:36:33;;;;;;;39.85;21.88;;;6.70;84.30;;;;;;4813600;29;20042;-76
2021/01/06 10:39:00;;;;;;;47.58;24.90;;;6.80;84.40;;;;;;4777671;29;20070;-76
2021/01/06 10:41:32;;;;;;;39.55;22.83;;;6.80;84.40;;;;;;4760041;30;20058;-75
2021/01/06 10:44:01;;;;;;;38.83;21.35;;;6.80;84.70;;;;;;4775094;30;20277;-75
2021/01/06 10:46:35;;;;;;;30.67;18.45;;;6.70;84.30;;;;;;4760346;30;20247;-75
2021/01/06 10:49:26;;;;;;;35.17;18.08;;;6.70;85.00;;;;;;4774475;30;20118;-75
2021/01/06 10:51:54;;;;;;;28.33;16.27;;;6.60;84.90;;;;;;4812362;29;20039;-75
2021/01/06 10:54:44;;;;;;;34.70;19.52;;;6.50;85.70;;;;;;4802986;29;20095;-74
2021/01/06 10:57:28;;;;;;;24.00;14.80;;;6.80;86.00;;;;;;4794687;30;20308;-74
2021/01/06 11:00:23;;;;;;;34.40;18.95;;;6.80;84.50;;;;;;4779567;30;20110;-74
2021/01/06 11:03:02;;;;;;;27.98;17.02;;;6.90;85.20;;;;;;4794104;30;20050;-74
2021/01/06 11:05:37;;;;;;;30.60;17.75;;;6.90;84.70;;;;;;4793927;30;20035;-74
2021/01/06 11:08:43;;;;;;;27.67;16.58;;;7.00;84.80;;;;;;4794465;30;20035;-74
2021/01/06 11:11:19;;;;;;;27.45;15.95;;;7.00;84.40;;;;;;4794318;30;20028;-74
2021/01/06 11:14:09;;;;;;;26.38;14.85;;;7.00;84.70;;;;;;4794130;30;20051;-74
2021/01/06 11:16:45;;;;;;;28.40;15.18;;;6.90;83.90;;;;;;4794047;30;20126;-75
2021/01/06 11:19:55;;;;;;;24.10;14.55;;;6.80;84.20;;;;;;4794173;30;20255;-75
2021/01/06 11:22:32;;;;;;;38.92;16.33;;;6.80;83.50;;;;;;4775424;30;20119;-75
2021/01/06 11:25:02;;;;;;;;;;;6.70;83.70;;;;;;4779580;30;20058;-75
2021/01/06 11:27:36;;;;;;;26.45;15.23;;;6.80;83.90;;;;;;4800176;29;19913;-75
2021/01/06 11:30:32;;;;;;;25.83;14.32;;;6.90;83.60;;;;;;4776969;29;20403;-75
2021/01/06 11:33:17;;;;;;;24.77;15.60;;;6.90;83.20;;;;;;4796711;29;20046;-75
2021/01/06 11:36:07;;;;;;;19.02;12.52;;;7.20;83.40;;;;;;4796276;29;20038;-75
2021/01/06 11:38:38;;;;;;;25.27;13.73;;;7.00;83.30;;;;;;4774429;30;20062;-75
2021/01/06 11:41:06;;;;;;;24.30;15.40;;;7.10;84.00;;;;;;4768531;30;20040;-76
2021/01/06 11:43:53;;;;;;;22.00;13.30;;;7.30;84.10;;;;;;4775955;30;20323;-74
2021/01/06 11:46:43;;;;;;;21.88;14.38;;;7.30;83.70;;;;;;4778694;30;20074;-75
2021/01/06 11:49:12;;;;;;;26.25;15.15;;;7.40;82.60;;;;;;4783069;29;20355;-75
2021/01/06 11:51:39;;;;;;;17.70;11.65;;;7.60;82.90;;;;;;4767215;30;20050;-75
2021/01/06 11:54:28;;;;;;;21.40;11.57;;;7.60;81.10;;;;;;4788398;30;20105;-75
2021/01/06 11:57:03;;;;;;;20.15;10.85;;;7.60;80.70;;;;;;4779071;30;20222;-75
2021/01/06 11:59:42;;;;;;;19.40;11.77;;;7.50;80.50;;;;;;4782709;30;20059;-76
2021/01/06 12:02:26;;;;;;;17.90;11.27;;;7.50;81.60;;;;;;4776110;30;20299;-76
2021/01/06 12:05:16;;;;;;;22.88;12.32;;;7.50;81.90;;;;;;4777855;30;20035;-76
2021/01/06 12:08:03;;;;;;;18.75;10.43;;;7.70;82.00;;;;;;4764963;30;20044;-77
2021/01/06 12:10:53;;;;;;;21.23;11.88;;;7.80;81.40;;;;;;4787420;30;20040;-77
2021/01/06 12:13:38;;;;;;;18.05;11.10;;;7.70;80.90;;;;;;4769601;30;20039;-77
2021/01/06 12:16:13;;;;;;;24.02;12.15;;;7.90;81.00;;;;;;4767665;30;20200;-76
2021/01/06 12:19:09;;;;;;;21.40;11.57;;;7.80;81.10;;;;;;4779898;30;20036;-77
2021/01/06 12:21:35;;;;;;;18.80;11.00;;;8.00;79.90;;;;;;4792751;30;20083;-76
2021/01/06 12:24:21;;;;;;;20.35;11.20;;;8.10;80.20;;;;;;4789361;30;20089;-77
2021/01/06 12:27:05;;;;;;;18.30;10.73;;;8.20;79.20;;;;;;4770532;30;20063;-76
2021/01/06 12:29:48;;;;;;;17.02;10.48;;;8.10;79.10;;;;;;4762071;30;20345;-76
2021/01/06 12:32:33;;;;;;;19.45;11.00;;;8.20;78.50;;;;;;4771925;30;20071;-77
2021/01/06 12:35:30;;;;;;;20.33;11.05;;;8.30;78.60;;;;;;4766997;30;20048;-77
2021/01/06 12:38:05;;;;;;;19.95;12.75;;;8.20;77.90;;;;;;4788416;30;20053;-76
2021/01/06 12:40:32;;;;;;;21.80;14.10;;;8.10;78.10;;;;;;4789829;30;20044;-76
2021/01/06 12:43:00;;;;;;;;;;;8.10;78.50;;;;;;4783738;30;20032;-77
2021/01/06 12:45:39;;;;;;;24.27;14.02;;;8.30;78.30;;;;;;4788239;30;20174;-76
2021/01/06 12:48:17;;;;;;;27.55;14.02;;;8.20;78.20;;;;;;4762350;30;20036;-76
2021/01/06 12:50:52;;;;;;;21.23;12.10;;;8.20;77.00;;;;;;4776924;30;20137;-76
2021/01/06 12:53:35;;;;;;;25.30;14.27;;;8.10;76.70;;;;;;4776861;30;20079;-77
2021/01/06 12:56:04;;;;;;;24.42;12.82;;;8.00;77.50;;;;;;4777106;30;20028;-76
2021/01/06 12:58:38;;;;;;;23.13;13.30;;;8.20;77.40;;;;;;4763228;30;20040;-76
2021/01/06 13:01:29;;;;;;;17.48;10.52;;;8.00;76.50;;;;;;4776002;30;20035;-76
2021/01/06 13:04:00;;;;;;;18.35;11.35;;;7.90;76.90;;;;;;4776709;30;20127;-76
2021/01/06 13:06:33;;;;;;;17.60;11.05;;;7.90;76.60;;;;;;4777531;30;20111;-75
2021/01/06 13:09:11;;;;;;;17.58;10.68;;;8.00;76.80;;;;;;4776958;30;20060;-76
2021/01/06 13:11:37;;;;;;;16.23;9.70;;;8.10;76.50;;;;;;4762912;30;20039;-75
2021/01/06 13:14:34;;;;;;;18.63;10.60;;;8.20;75.50;;;;;;4747357;30;20029;-75
2021/01/06 13:17:14;;;;;;;16.95;9.32;;;8.00;75.30;;;;;;4763219;30;20056;-75
2021/01/06 13:19:59;;;;;;;13.23;8.10;;;7.90;76.10;;;;;;4778561;30;20047;-75
2021/01/06 13:22:35;;;;;;;16.75;9.65;;;7.80;74.40;;;;;;4778593;30;20058;-75
2021/01/06 13:25:07;;;;;;;13.27;8.07;;;7.60;75.60;;;;;;4776941;30;20035;-75
2021/01/06 13:27:44;;;;;;;14.40;7.75;;;7.40;74.70;;;;;;4765642;30;20071;-75
2021/01/06 13:30:30;;;;;;;13.63;8.75;;;7.30;75.20;;;;;;4760932;30;20351;-76
2021/01/06 13:33:15;;;;;;;15.73;8.68;;;7.50;75.90;;;;;;4760710;30;20036;-75
2021/01/06 13:36:04;;;;;;;14.57;8.57;;;7.50;75.50;;;;;;4753097;30;20347;-76
2021/01/06 13:38:52;;;;;;;12.98;8.20;;;7.40;74.60;;;;;;4783152;30;20327;-76
2021/01/06 13:41:31;;;;;;;14.30;8.50;;;7.40;74.80;;;;;;4774940;30;20197;-75
2021/01/06 13:44:30;;;;;;;12.75;8.40;;;7.50;74.70;;;;;;4760147;30;20050;-75
2021/01/06 13:47:15;;;;;;;14.18;8.82;;;7.50;75.10;;;;;;4773817;30;20569;-75
2021/01/06 13:50:20;;;;;;;16.00;10.10;;;7.70;75.10;;;;;;4775997;30;20070;-76
2021/01/06 13:53:13;;;;;;;16.42;10.32;;;7.90;74.50;;;;;;4777484;30;20031;-75
2021/01/06 13:55:44;;;;;;;15.50;8.68;;;7.80;73.50;;;;;;4775873;30;20047;-76
2021/01/06 13:58:26;;;;;;;16.10;9.70;;;7.90;74.30;;;;;;4775757;29;20106;-76
2021/01/06 14:01:23;;;;;;;16.15;9.60;;;7.80;73.10;;;;;;4778531;30;20051;-75
2021/01/06 14:04:12;;;;;;;15.68;9.88;;;7.70;72.80;;;;;;4768976;30;20038;-76
2021/01/06 14:06:55;;;;;;;18.33;9.43;;;7.70;73.10;;;;;;4789942;30;20031;-75
2021/01/06 14:09:44;;;;;;;15.68;10.05;;;7.70;72.60;;;;;;4763202;30;20032;-75
2021/01/06 14:12:15;;;;;;;20.17;12.73;;;7.50;72.10;;;;;;4787451;29;20038;-76
2021/01/06 14:15:06;;;;;;;16.77;10.98;;;7.70;73.30;;;;;;4810420;29;20085;-75
2021/01/06 14:17:42;;;;;;;16.38;10.60;;;7.80;72.60;;;;;;4801807;29;20055;-75
2021/01/06 14:20:13;;;;;;;16.50;10.60;;;7.60;72.60;;;;;;4801514;29;20083;-75
2021/01/06 14:23:01;;;;;;;16.27;10.82;;;7.70;72.80;;;;;;4806081;29;20051;-75
2021/01/06 14:25:28;;;;;;;15.68;10.25;;;7.50;72.60;;;;;;4810836;29;20371;-75
2021/01/06 14:28:27;;;;;;;17.90;11.48;;;7.60;72.80;;;;;;4810735;29;20282;-75
2021/01/06 14:30:56;;;;;;;19.65;12.25;;;7.80;72.60;;;;;;4751430;30;20042;-75
2021/01/06 14:33:41;;;;;;;18.23;11.82;;;7.70;71.20;;;;;;4765505;30;20242;-75
2021/01/06 14:36:50;;;;;;;22.63;13.70;;;7.50;71.40;;;;;;4766358;30;20088;-75
2021/01/06 14:39:34;;;;;;;21.63;13.23;;;7.50;72.30;;;;;;4753907;30;20126;-75
2021/01/06 14:42:17;;;;;;;22.00;13.57;;;7.50;72.00;;;;;;4769262;30;20134;-75
2021/01/06 14:45:02;;;;;;;30.77;16.58;;;7.50;71.50;;;;;;4759559;30;20040;-74
2021/01/06 14:47:44;;;;;;;23.70;13.35;;;7.30;71.90;;;;;;4775421;30;20097;-74
2021/01/06 14:50:09;;;;;;;21.65;12.73;;;7.30;71.70;;;;;;4730454;30;20139;-75
2021/01/06 14:53:02;;;;;;;23.33;14.15;;;7.30;71.90;;;;;;4719359;30;20025;-75
2021/01/06 14:55:38;;;;;;;24.65;15.05;;;7.20;71.80;;;;;;4703261;30;20048;-74
2021/01/06 14:58:22;;;;;;;24.92;14.80;;;7.20;71.20;;;;;;4729815;30;20039;-74
2021/01/06 15:00:48;;;;;;;23.25;14.25;;;7.20;71.90;;;;;;4727420;30;20068;-75
2021/01/06 15:03:37;;;;;;;26.25;15.65;;;7.30;72.30;;;;;;4726051;30;20339;-75
2021/01/06 15:06:25;;;;;;;25.65;14.48;;;7.40;72.10;;;;;;4735474;30;20040;-74
2021/01/06 15:09:13;;;;;;;25.65;14.52;;;7.20;71.00;;;;;;4767499;30;20311;-75
2021/01/06 15:11:44;;;;;;;23.55;14.73;;;7.20;71.60;;;;;;4783588;30;20031;-75
2021/01/06 15:14:19;;;;;;;25.27;14.20;;;7.20;71.60;;;;;;4764058;30;20024;-75
2021/01/06 15:16:58;;;;;;;25.23;14.95;;;6.80;70.90;;;;;;4786438;29;20044;-74
2021/01/06 15:19:34;;;;;;;23.27;14.52;;;6.80;71.90;;;;;;4766030;30;20261;-75
2021/01/06 15:22:31;;;;;;;24.40;15.03;;;6.80;71.70;;;;;;4768093;30;20099;-74
2021/01/06 15:24:59;;;;;;;25.92;15.50;;;6.90;71.90;;;;;;4781250;30;20032;-74
2021/01/06 15:27:36;;;;;;;32.78;17.58;;;7.00;72.20;;;;;;4750877;30;20343;-74
2021/01/06 15:30:27;;;;;;;35.00;19.50;;;7.00;71.90;;;;;;4766918;30;20100;-74
2021/01/06 15:32:55;;;;;;;32.85;17.67;;;6.80;71.90;;;;;;4768716;30;20039;-74
2021/01/06 15:35:29;;;;;;;24.52;15.05;;;6.90;72.00;;;;;;4783721;29;20035;-74
2021/01/06 15:38:02;;;;;;;25.20;13.65;;;6.70;71.90;;;;;;4772991;30;20323;-74
2021/01/06 15:40:35;;;;;;;21.63;12.25;;;6.50;71.30;;;;;;4771995;30;20087;-74
2021/01/06 15:43:06;;;;;;;23.10;13.63;;;6.40;72.00;;;;;;4787652;30;20039;-74
2021/01/06 15:45:32;;;;;;;26.45;13.65;;;6.40;72.10;;;;;;4770379;30;20034;-74
2021/01/06 15:48:27;;;;;;;23.75;13.75;;;6.30;72.30;;;;;;4769614;30;20048;-75
2021/01/06 15:50:58;;;;;;;26.45;13.07;;;6.50;72.10;;;;;;4819005;29;20089;-74
2021/01/06 15:53:24;;;;;;;29.55;14.43;;;6.50;72.20;;;;;;4822000;29;20039;-75
2021/01/06 15:55:53;;;;;;;27.15;14.45;;;6.20;71.60;;;;;;4823411;29;20269;-74
2021/01/06 15:58:20;;;;;;;30.08;14.60;;;6.10;72.70;;;;;;4822972;29;20044;-75
2021/01/06 16:00:50;;;;;;;;;;;6.00;72.90;;;;;;4811452;29;20050;-75
2021/01/06 16:03:19;;;;;;;24.48;13.93;;;6.20;72.70;;;;;;4817062;29;20144;-75
2021/01/06 16:05:46;;;;;;;23.90;13.43;;;6.20;72.50;;;;;;4819460;29;20063;-76
2021/01/06 16:08:30;;;;;;;24.92;13.27;;;6.00;72.60;;;;;;4815717;29;20046;-75
2021/01/06 16:10:58;;;;;;;30.23;14.43;;;5.80;73.20;;;;;;4823471;29;20049;-75
2021/01/06 16:13:34;;;;;;;28.92;15.30;;;5.90;73.50;;;;;;4814323;29;20019;-74
2021/01/06 16:16:07;;;;;;;23.47;12.97;;;5.80;73.60;;;;;;4811371;29;20374;-75
2021/01/06 16:18:35;;;;;;;26.73;14.50;;;5.90;73.30;;;;;;4826672;29;20271;-74
2021/01/06 16:21:21;;;;;;;24.83;14.18;;;5.80;73.50;;;;;;4822376;29;20055;-75
2021/01/06 16:23:58;;;;;;;27.38;15.60;;;5.90;73.40;;;;;;4804869;29;20216;-74
2021/01/06 16:26:28;;;;;;;25.50;12.98;;;5.70;73.60;;;;;;4807531;29;20052;-75
2021/01/06 16:28:56;;;;;;;25.30;13.82;;;5.50;73.50;;;;;;4770486;30;20048;-75
2021/01/06 16:31:44;;;;;;;28.70;15.27;;;5.60;73.80;;;;;;4761230;30;20075;-75
2021/01/06 16:34:25;;;;;;;29.42;14.65;;;5.70;74.00;;;;;;4762185;30;20040;-74
2021/01/06 16:37:02;;;;;;;33.55;17.15;;;5.70;74.70;;;;;;4763561;30;20529;-75
2021/01/06 16:39:28;;;;;;;;;;;6.00;73.50;;;;;;4777350;30;20036;-74
2021/01/06 16:41:57;;;;;;;35.57;18.00;;;6.10;72.70;;;;;;4762302;30;19987;-75
2021/01/06 16:44:32;;;;;;;37.53;17.48;;;6.10;72.70;;;;;;4762873;30;20353;-74
2021/01/06 16:47:17;;;;;;;33.80;17.98;;;6.20;72.50;;;;;;4776680;30;20052;-75
2021/01/06 16:49:50;;;;;;;70.22;30.70;;;6.20;72.10;;;;;;4760572;30;20047;-75
2021/01/06 16:52:19;;;;;;;59.17;28.88;;;6.20;72.20;;;;;;4762475;30;20106;-74
2021/01/06 16:54:48;;;;;;;50.75;24.35;;;6.10;72.00;;;;;;4763072;30;20036;-75
2021/01/06 16:57:36;;;;;;;31.65;17.80;;;6.00;72.60;;;;;;4776746;30;20070;-75
2021/01/06 17:00:31;;;;;;;32.55;16.23;;;5.90;72.60;;;;;;4779557;30;20043;-74
2021/01/06 17:03:11;;;;;;;29.60;16.52;;;5.90;73.00;;;;;;4753458;30;20111;-74
2021/01/06 17:05:37;;;;;;;29.52;16.30;;;6.00;72.60;;;;;;4761820;30;20032;-74
2021/01/06 17:08:04;;;;;;;31.80;17.15;;;5.90;72.60;;;;;;4756067;30;20361;-75
2021/01/06 17:10:38;;;;;;;33.22;18.23;;;5.90;72.90;;;;;;4761450;30;20216;-75
2021/01/06 17:13:08;;;;;;;32.47;16.90;;;5.90;73.10;;;;;;4762109;30;20029;-74
2021/01/06 17:15:37;;;;;;;32.72;16.95;;;5.70;73.10;;;;;;4787475;30;20055;-74
2021/01/06 17:18:07;;;;;;;34.80;17.50;;;5.60;73.70;;;;;;4762620;30;20224;-74
2021/01/06 17:20:33;;;;;;;32.00;17.20;;;5.60;73.90;;;;;;4761748;30;20095;-74
2021/01/06 17:23:10;;;;;;;33.90;17.27;;;5.70;73.90;;;;;;4776328;30;20036;-76